sensor_id;sensor_type;location;lat;lon;timestamp;temperature;humidity
11009;DHT22;5557;51.670;7.788;2022-12-07T00:01:28;4.50;99.90
11009;DHT22;5557;51.670;7.788;2022-12-07T00:03:57;4.50;99.90
11009;DHT22;5557;51.670;7.788;2022-12-07T00:06:27;4.40;99.90
11009;DHT22;5557;51.670;7.788;2022-12-07T00:08:54;4.40;99.90
11009;DHT22;5557;51.670;7.788;2022-12-07T00:11:22;4.40;99.90
11009;DHT22;5557;51.670;7.788;2022-12-07T00:13:55;4.40;99.90
11009;DHT22;5557;51.670;7.788;2022-12-07T00:16:24;4.40;99.90
11009;DHT22;5557;51.670;7.788;2022-12-07T00:18:52;4.40;99.90
11009;DHT22;5557;51.670;7.788;2022-12-07T00:21:25;4.40;99.90
11009;DHT22;5557;51.670;7.788;2022-12-07T00:23:53;4.40;99.90
11009;DHT22;5557;51.670;7.788;2022-12-07T00:28:51;4.40;99.90
11009;DHT22;5557;51.670;7.788;2022-12-07T00:31:20;4.40;99.90
11009;DHT22;5557;51.670;7.788;2022-12-07T00:33:48;4.40;99.90
11009;DHT22;5557;51.670;7.788;2022-12-07T00:36:18;4.40;99.90
11009;DHT22;5557;51.670;7.788;2022-12-07T00:38:52;4.40;99.90
11009;DHT22;5557;51.670;7.788;2022-12-07T00:41:22;4.40;99.90
11009;DHT22;5557;51.670;7.788;2022-12-07T00:43:50;4.50;99.90
11009;DHT22;5557;51.670;7.788;2022-12-07T00:46:18;4.40;99.90
11009;DHT22;5557;51.670;7.788;2022-12-07T00:48:46;4.50;99.90
11009;DHT22;5557;51.670;7.788;2022-12-07T00:51:14;4.50;99.90
11009;DHT22;5557;51.670;7.788;2022-12-07T00:53:42;4.50;99.90
11009;DHT22;5557;51.670;7.788;2022-12-07T00:56:14;4.50;99.90
11009;DHT22;5557;51.670;7.788;2022-12-07T00:58:42;4.50;99.90
11009;DHT22;5557;51.670;7.788;2022-12-07T01:01:10;4.50;99.90
11009;DHT22;5557;51.670;7.788;2022-12-07T01:03:37;4.50;99.90
11009;DHT22;5557;51.670;7.788;2022-12-07T01:06:05;4.50;99.90
11009;DHT22;5557;51.670;7.788;2022-12-07T01:08:33;4.50;99.90
11009;DHT22;5557;51.670;7.788;2022-12-07T01:11:05;4.50;99.90
11009;DHT22;5557;51.670;7.788;2022-12-07T01:13:34;4.60;99.90
11009;DHT22;5557;51.670;7.788;2022-12-07T01:16:04;4.60;99.90
11009;DHT22;5557;51.670;7.788;2022-12-07T01:18:33;4.60;99.90
11009;DHT22;5557;51.670;7.788;2022-12-07T01:21:11;4.50;99.90
11009;DHT22;5557;51.670;7.788;2022-12-07T01:23:39;4.50;99.90
11009;DHT22;5557;51.670;7.788;2022-12-07T01:26:09;4.50;99.90
11009;DHT22;5557;51.670;7.788;2022-12-07T01:28:37;4.50;99.90
11009;DHT22;5557;51.670;7.788;2022-12-07T01:31:09;4.60;99.90
11009;DHT22;5557;51.670;7.788;2022-12-07T01:33:39;4.50;99.90
11009;DHT22;5557;51.670;7.788;2022-12-07T01:36:14;4.50;99.90
11009;DHT22;5557;51.670;7.788;2022-12-07T01:38:42;4.60;99.90
11009;DHT22;5557;51.670;7.788;2022-12-07T01:41:09;4.60;99.90
11009;DHT22;5557;51.670;7.788;2022-12-07T01:44:06;4.60;99.90
11009;DHT22;5557;51.670;7.788;2022-12-07T01:46:24;4.50;99.90
11009;DHT22;5557;51.670;7.788;2022-12-07T01:48:51;4.60;99.90
11009;DHT22;5557;51.670;7.788;2022-12-07T01:51:18;4.60;99.90
11009;DHT22;5557;51.670;7.788;2022-12-07T01:53:45;4.50;99.90
11009;DHT22;5557;51.670;7.788;2022-12-07T01:56:17;4.50;99.90
11009;DHT22;5557;51.670;7.788;2022-12-07T01:58:45;4.50;99.90
11009;DHT22;5557;51.670;7.788;2022-12-07T02:01:12;4.50;99.90
11009;DHT22;5557;51.670;7.788;2022-12-07T02:03:42;4.60;99.90
11009;DHT22;5557;51.670;7.788;2022-12-07T02:06:12;4.50;99.90
11009;DHT22;5557;51.670;7.788;2022-12-07T02:08:40;4.50;99.90
11009;DHT22;5557;51.670;7.788;2022-12-07T02:11:08;4.50;99.90
11009;DHT22;5557;51.670;7.788;2022-12-07T02:13:37;4.50;99.90
11009;DHT22;5557;51.670;7.788;2022-12-07T02:23:50;4.50;99.90
11009;DHT22;5557;51.670;7.788;2022-12-07T02:30:16;4.40;99.90
11009;DHT22;5557;51.670;7.788;2022-12-07T02:33:03;4.50;99.90
11009;DHT22;5557;51.670;7.788;2022-12-07T02:35:41;4.40;99.90
11009;DHT22;5557;51.670;7.788;2022-12-07T02:38:52;4.40;99.90
11009;DHT22;5557;51.670;7.788;2022-12-07T02:41:33;4.40;99.90
11009;DHT22;5557;51.670;7.788;2022-12-07T02:44:18;4.40;99.90
11009;DHT22;5557;51.670;7.788;2022-12-07T02:47:03;4.40;99.90
11009;DHT22;5557;51.670;7.788;2022-12-07T02:49:32;4.30;99.90
11009;DHT22;5557;51.670;7.788;2022-12-07T02:52:00;4.30;99.90
11009;DHT22;5557;51.670;7.788;2022-12-07T02:54:27;4.30;99.90
11009;DHT22;5557;51.670;7.788;2022-12-07T02:57:42;4.20;99.90
11009;DHT22;5557;51.670;7.788;2022-12-07T03:00:18;4.20;99.90
11009;DHT22;5557;51.670;7.788;2022-12-07T03:03:07;4.10;99.90
11009;DHT22;5557;51.670;7.788;2022-12-07T03:06:10;4.00;99.90
11009;DHT22;5557;51.670;7.788;2022-12-07T03:09:09;4.00;99.90
11009;DHT22;5557;51.670;7.788;2022-12-07T03:11:52;3.90;99.90
11009;DHT22;5557;51.670;7.788;2022-12-07T03:14:28;4.00;99.90
11009;DHT22;5557;51.670;7.788;2022-12-07T03:17:02;4.00;99.90
11009;DHT22;5557;51.670;7.788;2022-12-07T03:19:34;4.00;99.90
11009;DHT22;5557;51.670;7.788;2022-12-07T03:22:08;4.00;99.90
11009;DHT22;5557;51.670;7.788;2022-12-07T03:24:49;3.90;99.90
11009;DHT22;5557;51.670;7.788;2022-12-07T03:27:22;3.90;99.90
11009;DHT22;5557;51.670;7.788;2022-12-07T03:30:15;3.80;99.90
11009;DHT22;5557;51.670;7.788;2022-12-07T03:33:04;3.80;99.90
11009;DHT22;5557;51.670;7.788;2022-12-07T03:35:40;3.80;99.90
11009;DHT22;5557;51.670;7.788;2022-12-07T03:38:24;3.70;99.90
11009;DHT22;5557;51.670;7.788;2022-12-07T03:41:07;3.70;99.90
11009;DHT22;5557;51.670;7.788;2022-12-07T03:43:35;3.60;99.90
11009;DHT22;5557;51.670;7.788;2022-12-07T03:49:43;3.40;99.90
11009;DHT22;5557;51.670;7.788;2022-12-07T03:55:11;3.30;99.90
11009;DHT22;5557;51.670;7.788;2022-12-07T03:57:41;3.20;99.90
11009;DHT22;5557;51.670;7.788;2022-12-07T04:00:10;3.20;99.90
11009;DHT22;5557;51.670;7.788;2022-12-07T04:02:37;3.10;99.90
11009;DHT22;5557;51.670;7.788;2022-12-07T04:05:05;3.10;99.90
11009;DHT22;5557;51.670;7.788;2022-12-07T04:07:32;3.10;99.90
11009;DHT22;5557;51.670;7.788;2022-12-07T04:09:59;3.00;99.90
11009;DHT22;5557;51.670;7.788;2022-12-07T04:12:26;3.00;99.90
11009;DHT22;5557;51.670;7.788;2022-12-07T04:14:53;3.00;99.90
11009;DHT22;5557;51.670;7.788;2022-12-07T04:17:20;2.90;99.90
11009;DHT22;5557;51.670;7.788;2022-12-07T04:19:47;2.90;99.90
11009;DHT22;5557;51.670;7.788;2022-12-07T04:22:14;2.90;99.90
11009;DHT22;5557;51.670;7.788;2022-12-07T04:24:41;2.80;99.90
11009;DHT22;5557;51.670;7.788;2022-12-07T04:27:08;2.80;99.90
11009;DHT22;5557;51.670;7.788;2022-12-07T04:29:35;2.80;99.90
11009;DHT22;5557;51.670;7.788;2022-12-07T04:32:02;2.80;99.90
11009;DHT22;5557;51.670;7.788;2022-12-07T04:34:29;2.70;99.90
11009;DHT22;5557;51.670;7.788;2022-12-07T04:36:56;2.70;99.90
11009;DHT22;5557;51.670;7.788;2022-12-07T04:39:28;2.80;99.90
11009;DHT22;5557;51.670;7.788;2022-12-07T04:41:55;2.70;99.90
11009;DHT22;5557;51.670;7.788;2022-12-07T04:44:23;2.70;99.90
11009;DHT22;5557;51.670;7.788;2022-12-07T04:46:50;2.70;99.90
11009;DHT22;5557;51.670;7.788;2022-12-07T04:49:18;2.70;99.90
11009;DHT22;5557;51.670;7.788;2022-12-07T04:51:45;2.60;99.90
11009;DHT22;5557;51.670;7.788;2022-12-07T04:54:14;2.60;99.90
11009;DHT22;5557;51.670;7.788;2022-12-07T04:56:41;2.50;99.90
11009;DHT22;5557;51.670;7.788;2022-12-07T04:59:10;2.50;99.90
11009;DHT22;5557;51.670;7.788;2022-12-07T05:01:38;2.50;99.90
11009;DHT22;5557;51.670;7.788;2022-12-07T05:04:05;2.50;99.90
11009;DHT22;5557;51.670;7.788;2022-12-07T05:06:32;2.50;99.90
11009;DHT22;5557;51.670;7.788;2022-12-07T05:08:59;2.50;99.90
11009;DHT22;5557;51.670;7.788;2022-12-07T05:11:27;2.40;99.90
11009;DHT22;5557;51.670;7.788;2022-12-07T05:14:20;2.40;99.90
11009;DHT22;5557;51.670;7.788;2022-12-07T05:16:49;2.40;99.90
11009;DHT22;5557;51.670;7.788;2022-12-07T05:19:18;2.40;99.90
11009;DHT22;5557;51.670;7.788;2022-12-07T05:21:45;2.40;99.90
11009;DHT22;5557;51.670;7.788;2022-12-07T05:24:14;2.40;99.90
11009;DHT22;5557;51.670;7.788;2022-12-07T05:26:41;2.50;99.90
11009;DHT22;5557;51.670;7.788;2022-12-07T05:29:12;2.50;99.90
11009;DHT22;5557;51.670;7.788;2022-12-07T05:31:42;2.50;99.90
11009;DHT22;5557;51.670;7.788;2022-12-07T05:34:10;2.50;99.90
11009;DHT22;5557;51.670;7.788;2022-12-07T05:36:37;2.60;99.90
11009;DHT22;5557;51.670;7.788;2022-12-07T05:39:06;2.60;99.90
11009;DHT22;5557;51.670;7.788;2022-12-07T05:41:34;2.70;99.90
11009;DHT22;5557;51.670;7.788;2022-12-07T05:44:19;2.70;99.90
11009;DHT22;5557;51.670;7.788;2022-12-07T05:46:46;2.70;99.90
11009;DHT22;5557;51.670;7.788;2022-12-07T05:49:13;2.70;99.90
11009;DHT22;5557;51.670;7.788;2022-12-07T05:51:40;2.80;99.90
11009;DHT22;5557;51.670;7.788;2022-12-07T05:54:07;2.80;99.90
11009;DHT22;5557;51.670;7.788;2022-12-07T05:56:34;2.80;99.90
11009;DHT22;5557;51.670;7.788;2022-12-07T05:59:01;2.80;99.90
11009;DHT22;5557;51.670;7.788;2022-12-07T06:01:46;2.80;99.90
11009;DHT22;5557;51.670;7.788;2022-12-07T06:04:13;2.90;99.90
11009;DHT22;5557;51.670;7.788;2022-12-07T06:06:40;2.90;99.90
11009;DHT22;5557;51.670;7.788;2022-12-07T06:09:07;2.90;99.90
11009;DHT22;5557;51.670;7.788;2022-12-07T06:11:34;2.90;99.90
11009;DHT22;5557;51.670;7.788;2022-12-07T06:14:20;2.90;99.90
11009;DHT22;5557;51.670;7.788;2022-12-07T06:16:47;2.90;99.90
11009;DHT22;5557;51.670;7.788;2022-12-07T06:19:14;2.80;99.90
11009;DHT22;5557;51.670;7.788;2022-12-07T06:21:41;2.80;99.90
11009;DHT22;5557;51.670;7.788;2022-12-07T06:24:12;2.80;99.90
11009;DHT22;5557;51.670;7.788;2022-12-07T06:26:40;2.80;99.90
11009;DHT22;5557;51.670;7.788;2022-12-07T06:29:09;2.80;99.90
11009;DHT22;5557;51.670;7.788;2022-12-07T06:31:37;2.80;99.90
11009;DHT22;5557;51.670;7.788;2022-12-07T06:34:11;2.90;99.90
11009;DHT22;5557;51.670;7.788;2022-12-07T06:36:38;2.90;99.90
11009;DHT22;5557;51.670;7.788;2022-12-07T06:39:06;2.90;99.90
11009;DHT22;5557;51.670;7.788;2022-12-07T06:41:37;2.90;99.90
11009;DHT22;5557;51.670;7.788;2022-12-07T06:44:05;2.90;99.90
11009;DHT22;5557;51.670;7.788;2022-12-07T06:46:33;2.90;99.90
11009;DHT22;5557;51.670;7.788;2022-12-07T06:49:03;2.90;99.90
11009;DHT22;5557;51.670;7.788;2022-12-07T06:51:31;2.90;99.90
11009;DHT22;5557;51.670;7.788;2022-12-07T06:53:58;2.90;99.90
11009;DHT22;5557;51.670;7.788;2022-12-07T06:56:25;2.90;99.90
11009;DHT22;5557;51.670;7.788;2022-12-07T06:58:52;2.90;99.90
11009;DHT22;5557;51.670;7.788;2022-12-07T07:01:19;2.90;99.90
11009;DHT22;5557;51.670;7.788;2022-12-07T07:03:46;2.80;99.90
11009;DHT22;5557;51.670;7.788;2022-12-07T07:06:14;2.80;99.90
11009;DHT22;5557;51.670;7.788;2022-12-07T07:08:41;2.70;99.90
11009;DHT22;5557;51.670;7.788;2022-12-07T07:11:09;2.70;99.90
11009;DHT22;5557;51.670;7.788;2022-12-07T07:13:36;2.70;99.90
11009;DHT22;5557;51.670;7.788;2022-12-07T07:16:04;2.70;99.90
11009;DHT22;5557;51.670;7.788;2022-12-07T07:18:31;2.80;99.90
11009;DHT22;5557;51.670;7.788;2022-12-07T07:20:58;2.80;99.90
11009;DHT22;5557;51.670;7.788;2022-12-07T07:23:25;2.70;99.90
11009;DHT22;5557;51.670;7.788;2022-12-07T07:25:52;2.70;99.90
11009;DHT22;5557;51.670;7.788;2022-12-07T07:28:19;2.60;99.90
11009;DHT22;5557;51.670;7.788;2022-12-07T07:33:17;2.60;99.90
11009;DHT22;5557;51.670;7.788;2022-12-07T07:35:47;2.60;99.90
11009;DHT22;5557;51.670;7.788;2022-12-07T07:38:14;2.60;99.90
11009;DHT22;5557;51.670;7.788;2022-12-07T07:40:41;2.70;99.90
11009;DHT22;5557;51.670;7.788;2022-12-07T07:43:08;2.70;99.90
11009;DHT22;5557;51.670;7.788;2022-12-07T07:45:35;2.60;99.90
11009;DHT22;5557;51.670;7.788;2022-12-07T07:48:02;2.70;99.90
11009;DHT22;5557;51.670;7.788;2022-12-07T07:50:29;2.60;99.90
11009;DHT22;5557;51.670;7.788;2022-12-07T07:52:57;2.70;99.90
11009;DHT22;5557;51.670;7.788;2022-12-07T07:55:24;2.70;99.90
11009;DHT22;5557;51.670;7.788;2022-12-07T07:57:51;2.70;99.90
11009;DHT22;5557;51.670;7.788;2022-12-07T08:00:21;2.60;99.90
11009;DHT22;5557;51.670;7.788;2022-12-07T08:02:48;2.60;99.90
11009;DHT22;5557;51.670;7.788;2022-12-07T08:05:16;2.60;99.90
11009;DHT22;5557;51.670;7.788;2022-12-07T08:07:43;2.60;99.90
11009;DHT22;5557;51.670;7.788;2022-12-07T08:10:12;2.60;99.90
11009;DHT22;5557;51.670;7.788;2022-12-07T08:12:40;2.60;99.90
11009;DHT22;5557;51.670;7.788;2022-12-07T08:15:29;2.70;99.90
11009;DHT22;5557;51.670;7.788;2022-12-07T08:17:56;2.70;99.90
11009;DHT22;5557;51.670;7.788;2022-12-07T08:20:23;2.70;99.90
11009;DHT22;5557;51.670;7.788;2022-12-07T08:22:50;2.80;99.90
11009;DHT22;5557;51.670;7.788;2022-12-07T08:25:17;3.20;99.90
11009;DHT22;5557;51.670;7.788;2022-12-07T08:27:45;3.50;99.90
11009;DHT22;5557;51.670;7.788;2022-12-07T08:30:12;3.50;99.90
11009;DHT22;5557;51.670;7.788;2022-12-07T08:32:39;3.50;99.90
11009;DHT22;5557;51.670;7.788;2022-12-07T08:35:07;3.40;99.90
11009;DHT22;5557;51.670;7.788;2022-12-07T08:37:34;3.40;99.90
11009;DHT22;5557;51.670;7.788;2022-12-07T08:40:02;3.70;99.90
11009;DHT22;5557;51.670;7.788;2022-12-07T08:42:30;4.20;99.90
11009;DHT22;5557;51.670;7.788;2022-12-07T08:45:07;4.40;99.90
11009;DHT22;5557;51.670;7.788;2022-12-07T08:47:37;4.50;99.90
11009;DHT22;5557;51.670;7.788;2022-12-07T08:50:07;4.30;99.90
11009;DHT22;5557;51.670;7.788;2022-12-07T08:52:35;4.30;99.90
11009;DHT22;5557;51.670;7.788;2022-12-07T08:55:04;4.60;99.90
11009;DHT22;5557;51.670;7.788;2022-12-07T08:57:33;5.00;99.90
11009;DHT22;5557;51.670;7.788;2022-12-07T09:00:02;5.50;99.90
11009;DHT22;5557;51.670;7.788;2022-12-07T09:02:31;5.40;99.90
11009;DHT22;5557;51.670;7.788;2022-12-07T09:04:58;4.90;99.90
11009;DHT22;5557;51.670;7.788;2022-12-07T09:07:25;4.60;99.90
11009;DHT22;5557;51.670;7.788;2022-12-07T09:09:53;4.30;99.90
11009;DHT22;5557;51.670;7.788;2022-12-07T09:12:20;4.10;99.90
11009;DHT22;5557;51.670;7.788;2022-12-07T09:14:46;3.90;99.90
11009;DHT22;5557;51.670;7.788;2022-12-07T09:17:14;4.10;99.90
11009;DHT22;5557;51.670;7.788;2022-12-07T09:19:40;4.60;99.90
11009;DHT22;5557;51.670;7.788;2022-12-07T09:22:09;4.80;99.90
11009;DHT22;5557;51.670;7.788;2022-12-07T09:24:36;4.70;99.90
11009;DHT22;5557;51.670;7.788;2022-12-07T09:27:03;4.70;99.90
11009;DHT22;5557;51.670;7.788;2022-12-07T09:29:30;4.70;99.90
11009;DHT22;5557;51.670;7.788;2022-12-07T09:31:57;4.90;99.90
11009;DHT22;5557;51.670;7.788;2022-12-07T09:34:24;5.10;97.00
11009;DHT22;5557;51.670;7.788;2022-12-07T09:36:53;5.40;97.50
11009;DHT22;5557;51.670;7.788;2022-12-07T09:39:20;5.60;94.30
11009;DHT22;5557;51.670;7.788;2022-12-07T09:41:47;5.80;91.80
11009;DHT22;5557;51.670;7.788;2022-12-07T09:44:21;5.80;91.60
11009;DHT22;5557;51.670;7.788;2022-12-07T09:46:50;5.70;93.70
11009;DHT22;5557;51.670;7.788;2022-12-07T09:49:22;5.50;93.40
11009;DHT22;5557;51.670;7.788;2022-12-07T09:52:20;5.40;95.40
11009;DHT22;5557;51.670;7.788;2022-12-07T09:54:52;5.10;97.10
11009;DHT22;5557;51.670;7.788;2022-12-07T09:57:29;5.10;99.60
11009;DHT22;5557;51.670;7.788;2022-12-07T10:00:01;5.10;99.60
11009;DHT22;5557;51.670;7.788;2022-12-07T10:02:44;4.90;99.90
11009;DHT22;5557;51.670;7.788;2022-12-07T10:05:15;4.80;99.90
11009;DHT22;5557;51.670;7.788;2022-12-07T10:07:49;4.80;99.90
11009;DHT22;5557;51.670;7.788;2022-12-07T10:10:30;4.80;99.90
11009;DHT22;5557;51.670;7.788;2022-12-07T10:13:06;4.80;99.90
11009;DHT22;5557;51.670;7.788;2022-12-07T10:15:55;4.80;99.90
11009;DHT22;5557;51.670;7.788;2022-12-07T10:18:34;4.80;99.90
11009;DHT22;5557;51.670;7.788;2022-12-07T10:21:14;4.70;99.90
11009;DHT22;5557;51.670;7.788;2022-12-07T10:24:04;4.60;99.90
11009;DHT22;5557;51.670;7.788;2022-12-07T10:26:51;4.60;99.90
11009;DHT22;5557;51.670;7.788;2022-12-07T10:29:33;4.50;99.90
11009;DHT22;5557;51.670;7.788;2022-12-07T10:35:23;4.50;99.90
11009;DHT22;5557;51.670;7.788;2022-12-07T10:37:51;4.70;99.90
11009;DHT22;5557;51.670;7.788;2022-12-07T10:40:33;4.90;99.90
11009;DHT22;5557;51.670;7.788;2022-12-07T10:43:18;5.10;99.90
11009;DHT22;5557;51.670;7.788;2022-12-07T10:49:55;5.40;99.90
11009;DHT22;5557;51.670;7.788;2022-12-07T10:52:40;5.70;99.90
11009;DHT22;5557;51.670;7.788;2022-12-07T10:55:25;6.00;98.10
11009;DHT22;5557;51.670;7.788;2022-12-07T11:06:33;5.60;95.10
11009;DHT22;5557;51.670;7.788;2022-12-07T11:18:52;5.90;93.90
11009;DHT22;5557;51.670;7.788;2022-12-07T11:24:14;5.90;92.10
11009;DHT22;5557;51.670;7.788;2022-12-07T11:26:52;5.80;92.50
11009;DHT22;5557;51.670;7.788;2022-12-07T11:41:04;5.70;88.90
11009;DHT22;5557;51.670;7.788;2022-12-07T11:47:57;5.70;89.00
11009;DHT22;5557;51.670;7.788;2022-12-07T11:50:45;5.70;90.10
11009;DHT22;5557;51.670;7.788;2022-12-07T11:53:14;5.70;90.40
11009;DHT22;5557;51.670;7.788;2022-12-07T11:56:11;5.70;90.30
11009;DHT22;5557;51.670;7.788;2022-12-07T11:59:12;5.70;90.40
11009;DHT22;5557;51.670;7.788;2022-12-07T12:02:00;5.80;90.50
11009;DHT22;5557;51.670;7.788;2022-12-07T12:08:12;5.70;91.10
11009;DHT22;5557;51.670;7.788;2022-12-07T12:14:11;5.70;91.40
11009;DHT22;5557;51.670;7.788;2022-12-07T12:17:29;5.60;90.40
11009;DHT22;5557;51.670;7.788;2022-12-07T12:21:00;5.60;91.60
11009;DHT22;5557;51.670;7.788;2022-12-07T12:25:54;5.70;90.50
11009;DHT22;5557;51.670;7.788;2022-12-07T12:31:35;5.60;92.40
11009;DHT22;5557;51.670;7.788;2022-12-07T12:36:58;5.50;93.80
11009;DHT22;5557;51.670;7.788;2022-12-07T12:39:26;5.40;93.50
11009;DHT22;5557;51.670;7.788;2022-12-07T12:41:57;5.40;93.70
11009;DHT22;5557;51.670;7.788;2022-12-07T12:45:01;5.40;93.30
11009;DHT22;5557;51.670;7.788;2022-12-07T12:47:42;5.40;92.90
11009;DHT22;5557;51.670;7.788;2022-12-07T12:50:30;5.40;90.70
11009;DHT22;5557;51.670;7.788;2022-12-07T12:53:19;5.40;91.50
11009;DHT22;5557;51.670;7.788;2022-12-07T12:55:49;5.30;92.00
11009;DHT22;5557;51.670;7.788;2022-12-07T12:58:35;5.30;92.30
11009;DHT22;5557;51.670;7.788;2022-12-07T13:01:40;5.30;92.60
11009;DHT22;5557;51.670;7.788;2022-12-07T13:04:29;5.30;93.50
11009;DHT22;5557;51.670;7.788;2022-12-07T13:06:57;5.30;92.50
11009;DHT22;5557;51.670;7.788;2022-12-07T13:09:31;5.30;93.30
11009;DHT22;5557;51.670;7.788;2022-12-07T13:12:05;5.40;93.00
11009;DHT22;5557;51.670;7.788;2022-12-07T13:14:55;5.50;92.40
11009;DHT22;5557;51.670;7.788;2022-12-07T13:17:55;5.50;92.00
11009;DHT22;5557;51.670;7.788;2022-12-07T13:20:47;5.50;91.30
11009;DHT22;5557;51.670;7.788;2022-12-07T13:23:17;5.60;91.90
11009;DHT22;5557;51.670;7.788;2022-12-07T13:26:02;5.60;92.60
11009;DHT22;5557;51.670;7.788;2022-12-07T13:28:39;5.60;92.40
11009;DHT22;5557;51.670;7.788;2022-12-07T13:34:48;5.60;92.70
11009;DHT22;5557;51.670;7.788;2022-12-07T13:37:27;5.60;93.40
11009;DHT22;5557;51.670;7.788;2022-12-07T13:40:20;5.50;93.50
11009;DHT22;5557;51.670;7.788;2022-12-07T13:42:48;5.50;92.80
11009;DHT22;5557;51.670;7.788;2022-12-07T13:45:29;5.40;93.00
11009;DHT22;5557;51.670;7.788;2022-12-07T13:51:01;5.30;94.40
11009;DHT22;5557;51.670;7.788;2022-12-07T13:53:29;5.30;94.50
11009;DHT22;5557;51.670;7.788;2022-12-07T13:55:58;5.20;94.90
11009;DHT22;5557;51.670;7.788;2022-12-07T13:58:29;5.10;95.60
11009;DHT22;5557;51.670;7.788;2022-12-07T14:00:57;5.10;96.40
11009;DHT22;5557;51.670;7.788;2022-12-07T14:03:33;5.10;97.10
11009;DHT22;5557;51.670;7.788;2022-12-07T14:06:22;5.20;97.40
11009;DHT22;5557;51.670;7.788;2022-12-07T14:09:07;5.20;97.60
11009;DHT22;5557;51.670;7.788;2022-12-07T14:11:34;5.20;97.40
11009;DHT22;5557;51.670;7.788;2022-12-07T14:14:03;5.20;96.90
11009;DHT22;5557;51.670;7.788;2022-12-07T14:16:39;5.10;96.50
11009;DHT22;5557;51.670;7.788;2022-12-07T14:19:40;5.20;97.10
11009;DHT22;5557;51.670;7.788;2022-12-07T14:22:38;5.10;97.40
11009;DHT22;5557;51.670;7.788;2022-12-07T14:25:32;5.00;97.90
11009;DHT22;5557;51.670;7.788;2022-12-07T14:28:01;4.90;98.40
11009;DHT22;5557;51.670;7.788;2022-12-07T14:30:33;4.90;98.30
11009;DHT22;5557;51.670;7.788;2022-12-07T14:33:05;4.80;98.60
11009;DHT22;5557;51.670;7.788;2022-12-07T14:35:32;4.80;98.80
11009;DHT22;5557;51.670;7.788;2022-12-07T14:37:59;4.80;98.90
11009;DHT22;5557;51.670;7.788;2022-12-07T14:40:28;4.80;98.50
11009;DHT22;5557;51.670;7.788;2022-12-07T14:43:04;4.80;98.50
11009;DHT22;5557;51.670;7.788;2022-12-07T14:45:31;4.70;98.20
11009;DHT22;5557;51.670;7.788;2022-12-07T14:47:59;4.70;98.40
11009;DHT22;5557;51.670;7.788;2022-12-07T14:50:51;4.70;98.80
11009;DHT22;5557;51.670;7.788;2022-12-07T14:53:44;4.80;97.60
11009;DHT22;5557;51.670;7.788;2022-12-07T14:56:18;4.90;96.30
11009;DHT22;5557;51.670;7.788;2022-12-07T14:58:45;4.80;95.80
11009;DHT22;5557;51.670;7.788;2022-12-07T15:01:14;4.80;95.50
11009;DHT22;5557;51.670;7.788;2022-12-07T15:03:41;4.60;95.90
11009;DHT22;5557;51.670;7.788;2022-12-07T15:06:15;4.50;96.60
11009;DHT22;5557;51.670;7.788;2022-12-07T15:08:42;4.40;97.70
11009;DHT22;5557;51.670;7.788;2022-12-07T15:11:15;4.40;98.10
11009;DHT22;5557;51.670;7.788;2022-12-07T15:13:42;4.30;98.40
11009;DHT22;5557;51.670;7.788;2022-12-07T15:16:28;4.20;99.10
11009;DHT22;5557;51.670;7.788;2022-12-07T15:19:18;4.10;99.90
11009;DHT22;5557;51.670;7.788;2022-12-07T15:21:56;4.10;99.90
11009;DHT22;5557;51.670;7.788;2022-12-07T15:24:23;4.00;99.90
11009;DHT22;5557;51.670;7.788;2022-12-07T15:26:51;3.90;99.90
11009;DHT22;5557;51.670;7.788;2022-12-07T15:29:18;3.90;99.90
11009;DHT22;5557;51.670;7.788;2022-12-07T15:31:50;3.80;99.90
11009;DHT22;5557;51.670;7.788;2022-12-07T15:34:28;3.80;99.90
11009;DHT22;5557;51.670;7.788;2022-12-07T15:37:07;3.80;99.90
11009;DHT22;5557;51.670;7.788;2022-12-07T15:39:35;3.70;99.90
11009;DHT22;5557;51.670;7.788;2022-12-07T15:42:02;3.80;99.90
11009;DHT22;5557;51.670;7.788;2022-12-07T15:44:29;3.80;99.90
11009;DHT22;5557;51.670;7.788;2022-12-07T15:47:15;3.70;99.90
11009;DHT22;5557;51.670;7.788;2022-12-07T15:49:43;3.70;99.90
11009;DHT22;5557;51.670;7.788;2022-12-07T15:52:10;3.60;99.90
11009;DHT22;5557;51.670;7.788;2022-12-07T15:54:36;3.60;99.90
11009;DHT22;5557;51.670;7.788;2022-12-07T15:57:03;3.50;99.90
11009;DHT22;5557;51.670;7.788;2022-12-07T15:59:30;3.40;99.90
11009;DHT22;5557;51.670;7.788;2022-12-07T16:01:57;3.30;99.90
11009;DHT22;5557;51.670;7.788;2022-12-07T16:04:27;3.30;99.90
11009;DHT22;5557;51.670;7.788;2022-12-07T16:06:55;3.30;99.90
11009;DHT22;5557;51.670;7.788;2022-12-07T16:09:21;3.30;99.90
11009;DHT22;5557;51.670;7.788;2022-12-07T16:11:48;3.30;99.90
11009;DHT22;5557;51.670;7.788;2022-12-07T16:14:17;3.30;99.90
11009;DHT22;5557;51.670;7.788;2022-12-07T16:16:44;3.30;99.90
11009;DHT22;5557;51.670;7.788;2022-12-07T16:19:11;3.30;99.90
11009;DHT22;5557;51.670;7.788;2022-12-07T16:21:38;3.30;99.90
11009;DHT22;5557;51.670;7.788;2022-12-07T16:24:06;3.30;99.90
11009;DHT22;5557;51.670;7.788;2022-12-07T16:26:33;3.30;99.90
11009;DHT22;5557;51.670;7.788;2022-12-07T16:29:00;3.30;99.90
11009;DHT22;5557;51.670;7.788;2022-12-07T16:31:28;3.30;99.90
11009;DHT22;5557;51.670;7.788;2022-12-07T16:33:57;3.30;99.90
11009;DHT22;5557;51.670;7.788;2022-12-07T16:36:25;3.30;99.90
11009;DHT22;5557;51.670;7.788;2022-12-07T16:39:14;3.40;99.90
11009;DHT22;5557;51.670;7.788;2022-12-07T16:41:41;3.40;99.90
11009;DHT22;5557;51.670;7.788;2022-12-07T16:44:10;3.40;99.90
11009;DHT22;5557;51.670;7.788;2022-12-07T16:46:37;3.50;99.90
11009;DHT22;5557;51.670;7.788;2022-12-07T16:49:05;3.50;99.90
11009;DHT22;5557;51.670;7.788;2022-12-07T16:51:31;3.50;99.90
11009;DHT22;5557;51.670;7.788;2022-12-07T16:54:01;3.40;99.90
11009;DHT22;5557;51.670;7.788;2022-12-07T16:56:29;3.50;99.90
11009;DHT22;5557;51.670;7.788;2022-12-07T16:58:58;3.50;99.90
11009;DHT22;5557;51.670;7.788;2022-12-07T17:01:28;3.50;99.90
11009;DHT22;5557;51.670;7.788;2022-12-07T17:03:57;3.60;99.90
11009;DHT22;5557;51.670;7.788;2022-12-07T17:06:26;3.60;99.90
11009;DHT22;5557;51.670;7.788;2022-12-07T17:08:55;3.60;99.90
11009;DHT22;5557;51.670;7.788;2022-12-07T17:11:28;3.70;99.90
11009;DHT22;5557;51.670;7.788;2022-12-07T17:13:56;3.70;99.90
11009;DHT22;5557;51.670;7.788;2022-12-07T17:16:42;3.70;99.90
11009;DHT22;5557;51.670;7.788;2022-12-07T17:19:12;3.70;99.90
11009;DHT22;5557;51.670;7.788;2022-12-07T17:21:40;3.70;99.90
11009;DHT22;5557;51.670;7.788;2022-12-07T17:24:09;3.80;99.90
11009;DHT22;5557;51.670;7.788;2022-12-07T17:26:37;3.80;99.90
11009;DHT22;5557;51.670;7.788;2022-12-07T17:29:05;3.80;99.90
11009;DHT22;5557;51.670;7.788;2022-12-07T17:31:35;3.80;99.90
11009;DHT22;5557;51.670;7.788;2022-12-07T17:34:02;3.80;99.90
11009;DHT22;5557;51.670;7.788;2022-12-07T17:36:31;3.70;99.90
11009;DHT22;5557;51.670;7.788;2022-12-07T17:38:58;3.80;99.90
11009;DHT22;5557;51.670;7.788;2022-12-07T17:41:28;3.80;99.90
11009;DHT22;5557;51.670;7.788;2022-12-07T17:44:16;3.80;99.90
11009;DHT22;5557;51.670;7.788;2022-12-07T17:46:44;3.80;99.90
11009;DHT22;5557;51.670;7.788;2022-12-07T17:49:15;3.80;99.90
11009;DHT22;5557;51.670;7.788;2022-12-07T17:51:42;3.80;99.90
11009;DHT22;5557;51.670;7.788;2022-12-07T17:54:28;3.80;99.90
11009;DHT22;5557;51.670;7.788;2022-12-07T17:56:57;3.80;99.90
11009;DHT22;5557;51.670;7.788;2022-12-07T17:59:24;3.70;99.90
11009;DHT22;5557;51.670;7.788;2022-12-07T18:01:51;3.70;99.90
11009;DHT22;5557;51.670;7.788;2022-12-07T18:04:18;3.70;99.90
11009;DHT22;5557;51.670;7.788;2022-12-07T18:06:45;3.70;99.90